Reno, NV (89501)

12:10 PM PDT on August 30, 2015 (GMT -0700)
UNR Campus, LMR Roof | | Change Station
CLOSE
Current Station
Personal Weather Station
Location: Reno, NV
Elevation: 4570 ft
Nearby Weather Stations

Elev 4570 ft 39.54 °N, 119.81 °W | Updated 16 seconds ago

Scattered Clouds
Scattered Clouds
78.0 °F
Feels Like 78 °F
N
5.5
Wind Variable Wind from East
Gusts 0.0 mph

Today
High -- | Low -- °F
--% Chance of Precip.
Yesterday
High -- | Low -- °F
Precip. -- in
6:25 AM 7:33 PM
Full, 98% visible
Pressure 29.92 in
Visibility 10.0 miles
Clouds Few 8000 ft
Few 16000 ft
Scattered Clouds 21000 ft
Heat Index 78 °F
Dew Point 41 °F
Humidity 26%
Rainfall 0.00 in
Snow Depth Not available.
UV 8 out of 12
Pollen 8.50 out of 12
Air Quality Not available.
Flu Activity Not available.
METAR KRNO 301855Z VRB05KT 10SM FEW080 FEW160 SCT210 26/04 A3008 RMK AO2 SLP131 FU ALF ALQDS T02610044 $
Pressure 29.92 in
Visibility 10.0 miles
Clouds Few 8000 ft
Few 16000 ft
Scattered Clouds 21000 ft
Heat Index 78 °F
Dew Point 41 °F
Humidity 26%
Rainfall 0.00 in
Snow Depth Not available.
UV 8 out of 12
Pollen 8.50 out of 12
Air Quality Not available.
Flu Activity Not available.
METAR KRNO 301855Z VRB05KT 10SM FEW080 FEW160 SCT210 26/04 A3008 RMK AO2 SLP131 FU ALF ALQDS T02610044 $

10-Day Weather Forecast

×

Almanac

Astronomy

Aug. 30, 2015 Rise Set
Actual Time
Civil Twilight
Nautical Twilight
Astronomical Twilight
Moon
Length of Visible Light
Length of Day
Tomorrow will be .
, % of the Moon is Illuminated

Today's Extremes

State Highs State Lows

Community

WunderPhotos

Upload Photos

1,851,036 photos uploaded!

WunderBlogs® & News

Nearby

Air Quality

  Air Quality AQ Index Pollutant
Not available.

Snow Depth

Station Depth Elevation

Earthquake Activity

City Distance Mag. Time & Date
Minimum magnitude displayed is 2.5.

Coastal Water Temperatures

Place Temperature

Stations

Nearby Weather Stations

Station Location Temp. Windchill Dew Point Humidity Wind Precip. Elev Updated Type